createdAt,value
2022-11-10T00:00:35.125Z,0.20
2022-11-10T00:01:35.084Z,0.10
2022-11-10T00:02:35.080Z,0.10
2022-11-10T00:03:35.122Z,0.40
2022-11-10T00:04:35.116Z,0.10
2022-11-10T00:05:35.061Z,0.20
2022-11-10T00:06:35.084Z,0.80
2022-11-10T00:07:35.037Z,0.20
2022-11-10T00:08:35.042Z,0.20
2022-11-10T00:09:35.010Z,0.20
2022-11-10T00:10:35.010Z,0.20
2022-11-10T00:11:35.010Z,0.30
2022-11-10T00:12:35.000Z,0.20
2022-11-10T00:13:35.037Z,0.20
2022-11-10T00:14:34.942Z,0.30
2022-11-10T00:15:34.934Z,0.20
2022-11-10T00:16:35.007Z,0.20
2022-11-10T00:17:34.923Z,0.20
2022-11-10T00:18:34.948Z,0.20
2022-11-10T00:19:34.889Z,0.30
2022-11-10T00:20:34.887Z,0.20
2022-11-10T00:21:34.886Z,0.20
2022-11-10T00:22:34.854Z,0.70
2022-11-10T00:23:34.905Z,0.80
2022-11-10T00:24:34.886Z,0.20
2022-11-10T00:25:34.841Z,2.40
2022-11-10T00:26:34.843Z,0.20
2022-11-10T00:27:34.810Z,0.20
2022-11-10T00:28:34.840Z,0.10
2022-11-10T00:29:34.797Z,0.20
2022-11-10T00:30:34.772Z,0.20
2022-11-10T00:31:34.779Z,0.10
2022-11-10T00:32:34.771Z,0.20
2022-11-10T00:33:34.793Z,0.10
2022-11-10T00:34:34.741Z,0.20
2022-11-10T00:35:34.741Z,0.20
2022-11-10T00:36:34.706Z,0.20
2022-11-10T00:37:34.736Z,0.20
2022-11-10T00:38:34.707Z,0.20
2022-11-10T00:39:34.675Z,0.20
2022-11-10T00:40:34.663Z,0.20
2022-11-10T00:41:34.667Z,0.30
2022-11-10T00:42:34.646Z,0.30
2022-11-10T00:43:35.064Z,0.20
2022-11-10T00:44:34.636Z,0.20
2022-11-10T00:45:34.621Z,0.30
2022-11-10T00:46:34.624Z,0.20
2022-11-10T00:47:34.629Z,0.20
2022-11-10T00:48:34.636Z,0.20
2022-11-10T00:49:34.612Z,0.20
2022-11-10T00:50:34.559Z,1.00
2022-11-10T00:51:34.556Z,0.20
2022-11-10T00:52:34.540Z,0.30
2022-11-10T00:53:34.557Z,0.20
2022-11-10T00:54:34.537Z,0.20
2022-11-10T00:55:34.513Z,0.50
2022-11-10T00:56:34.555Z,0.30
2022-11-10T00:57:34.494Z,0.20
2022-11-10T00:58:34.523Z,0.20
2022-11-10T00:59:34.472Z,0.20
2022-11-10T01:00:34.448Z,0.30
2022-11-10T01:01:34.476Z,0.20
2022-11-10T01:02:34.425Z,0.30
2022-11-10T01:03:34.488Z,0.10
2022-11-10T01:04:34.396Z,0.20
2022-11-10T01:05:34.455Z,0.20
2022-11-10T01:06:34.441Z,0.20
2022-11-10T01:07:34.395Z,0.20
2022-11-10T01:08:34.368Z,0.30
2022-11-10T01:09:34.377Z,0.20
2022-11-10T01:10:34.610Z,0.10
2022-11-10T01:11:34.320Z,0.20
2022-11-10T01:12:34.330Z,0.20
2022-11-10T01:13:34.328Z,0.20
2022-11-10T01:14:34.323Z,0.30
2022-11-10T01:15:34.305Z,0.20
2022-11-10T01:16:34.291Z,0.20
2022-11-10T01:17:34.257Z,0.20
2022-11-10T01:18:34.263Z,0.20
2022-11-10T01:19:34.245Z,0.20
2022-11-10T01:20:34.223Z,0.20
2022-11-10T01:21:34.228Z,0.20
2022-11-10T01:22:34.200Z,0.20
2022-11-10T01:23:34.215Z,0.20
2022-11-10T01:24:34.182Z,0.20
2022-11-10T01:25:34.188Z,0.30
2022-11-10T01:26:34.167Z,0.10
2022-11-10T01:27:34.213Z,0.20
2022-11-10T01:28:34.158Z,0.20
2022-11-10T01:29:34.135Z,0.20
2022-11-10T01:30:34.189Z,0.20
2022-11-10T01:31:34.113Z,0.20
2022-11-10T01:32:34.091Z,0.20
2022-11-10T01:33:34.126Z,0.10
2022-11-10T01:34:34.074Z,0.20
2022-11-10T01:35:34.096Z,0.20
2022-11-10T01:36:34.099Z,0.20
2022-11-10T01:37:34.065Z,0.20
2022-11-10T01:38:34.022Z,0.20
2022-11-10T01:39:34.032Z,0.20
2022-11-10T01:40:34.099Z,0.20
2022-11-10T01:41:34.015Z,0.20
2022-11-10T01:42:34.048Z,0.20
2022-11-10T01:43:33.979Z,0.20
2022-11-10T01:44:33.957Z,0.20
2022-11-10T01:45:34.010Z,0.20
2022-11-10T01:46:33.957Z,0.20
2022-11-10T01:47:33.937Z,0.20
2022-11-10T01:48:33.974Z,0.10
2022-11-10T01:49:33.971Z,0.10
2022-11-10T01:50:33.900Z,0.20
2022-11-10T01:51:33.945Z,0.20
2022-11-10T01:52:33.871Z,0.20
2022-11-10T01:53:33.937Z,0.20
2022-11-10T01:54:33.867Z,0.20
2022-11-10T01:55:33.838Z,0.20
2022-11-10T01:56:33.895Z,0.20
2022-11-10T01:57:33.862Z,0.20
2022-11-10T01:58:33.830Z,0.20
2022-11-10T01:59:34.517Z,0.20
2022-11-10T02:00:33.861Z,0.20
2022-11-10T02:01:33.805Z,0.20
2022-11-10T02:02:33.820Z,0.20
2022-11-10T02:03:33.755Z,0.20
2022-11-10T02:04:33.787Z,0.20
2022-11-10T02:05:33.753Z,0.20
2022-11-10T02:06:33.816Z,0.20
2022-11-10T02:07:33.715Z,0.20
2022-11-10T02:08:33.711Z,0.20
2022-11-10T02:09:33.710Z,0.20
2022-11-10T02:10:33.678Z,0.20
2022-11-10T02:11:33.681Z,0.20
2022-11-10T02:12:33.697Z,0.10
2022-11-10T02:13:33.668Z,0.20
2022-11-10T02:14:33.664Z,0.20
2022-11-10T02:15:33.647Z,0.20
2022-11-10T02:16:33.668Z,0.20
2022-11-10T02:17:33.651Z,0.20
2022-11-10T02:18:33.624Z,0.20
2022-11-10T02:19:33.586Z,0.10
2022-11-10T02:20:33.579Z,0.10
2022-11-10T02:21:33.562Z,0.10
2022-11-10T02:22:33.585Z,8.70
2022-11-10T02:23:33.550Z,0.20
2022-11-10T02:24:33.542Z,0.20
2022-11-10T02:25:33.520Z,0.20
2022-11-10T02:26:33.517Z,0.20
2022-11-10T02:27:33.551Z,0.20
2022-11-10T02:28:33.501Z,0.20
2022-11-10T02:29:33.487Z,0.20
2022-11-10T02:30:33.467Z,0.20
2022-11-10T02:31:33.470Z,0.20
2022-11-10T02:32:33.466Z,0.20
2022-11-10T02:33:33.483Z,0.30
2022-11-10T02:34:33.436Z,0.10
2022-11-10T02:35:33.461Z,0.10
2022-11-10T02:36:33.415Z,0.20
2022-11-10T02:37:33.386Z,0.20
2022-11-10T02:38:33.424Z,0.20
2022-11-10T02:39:33.422Z,0.20
2022-11-10T02:40:33.376Z,0.20
2022-11-10T02:41:33.386Z,0.20
2022-11-10T02:42:33.355Z,0.20
2022-11-10T02:43:33.357Z,0.30
2022-11-10T02:44:33.354Z,0.20
2022-11-10T02:45:33.383Z,0.20
2022-11-10T02:46:33.321Z,0.20
2022-11-10T02:47:33.344Z,0.20
2022-11-10T02:48:33.301Z,0.10
2022-11-10T02:49:33.279Z,0.20
2022-11-10T02:50:34.064Z,0.20
2022-11-10T02:51:33.311Z,0.20
2022-11-10T02:52:33.299Z,0.20
2022-11-10T02:53:33.599Z,0.20
2022-11-10T02:54:33.320Z,0.20
2022-11-10T02:55:33.301Z,0.20
2022-11-10T02:56:34.087Z,0.20
2022-11-10T02:57:33.264Z,0.20
2022-11-10T02:58:33.625Z,0.20
2022-11-10T02:59:33.321Z,0.10
2022-11-10T03:00:33.338Z,0.30
2022-11-10T03:01:33.456Z,0.20
2022-11-10T03:02:34.064Z,0.20
2022-11-10T03:03:34.021Z,0.10
2022-11-10T03:04:33.319Z,0.30
2022-11-10T03:05:33.316Z,0.20
2022-11-10T03:06:33.104Z,0.20
2022-11-10T03:07:33.332Z,0.20
2022-11-10T03:08:33.069Z,0.20
2022-11-10T03:09:33.038Z,0.20
2022-11-10T03:10:33.043Z,0.20
2022-11-10T03:11:33.067Z,0.10
2022-11-10T03:12:33.037Z,0.20
2022-11-10T03:13:51.567Z,0.20
2022-11-10T03:14:34.057Z,0.20
2022-11-10T03:15:32.997Z,0.20
2022-11-10T03:16:32.965Z,0.20
2022-11-10T03:17:32.969Z,0.20
2022-11-10T03:18:32.989Z,0.20
2022-11-10T03:19:32.956Z,0.20
2022-11-10T03:20:32.928Z,0.20
2022-11-10T03:21:32.931Z,0.20
2022-11-10T03:22:32.907Z,0.20
2022-11-10T03:23:32.893Z,0.20
2022-11-10T03:24:32.912Z,0.20
2022-11-10T03:25:32.878Z,0.20
2022-11-10T03:26:32.930Z,0.20
2022-11-10T03:27:32.883Z,0.20
2022-11-10T03:28:32.871Z,0.20
2022-11-10T03:29:32.844Z,0.20
2022-11-10T03:30:32.835Z,0.20
2022-11-10T03:31:32.805Z,0.20
2022-11-10T03:32:32.869Z,0.20
2022-11-10T03:33:32.867Z,0.20
2022-11-10T03:34:32.804Z,0.20
2022-11-10T03:35:32.780Z,0.30
2022-11-10T03:36:32.752Z,0.20
2022-11-10T03:37:32.755Z,0.30
2022-11-10T03:38:32.755Z,0.20
2022-11-10T03:39:32.752Z,0.20
2022-11-10T03:40:45.500Z,0.10
2022-11-10T03:41:33.732Z,0.20
2022-11-10T03:42:32.689Z,0.20
2022-11-10T03:43:32.687Z,0.10
2022-11-10T03:44:32.713Z,0.20
2022-11-10T03:45:32.657Z,0.30
2022-11-10T03:46:32.672Z,0.20
2022-11-10T03:47:32.673Z,0.20
2022-11-10T03:48:32.646Z,0.10
2022-11-10T03:49:32.664Z,0.20
2022-11-10T03:50:32.665Z,0.20
2022-11-10T03:51:32.600Z,0.20
2022-11-10T03:52:32.587Z,0.20
2022-11-10T03:53:32.600Z,0.20
2022-11-10T03:54:32.578Z,0.20
2022-11-10T03:55:32.589Z,0.20
2022-11-10T03:56:32.557Z,0.30
2022-11-10T03:57:32.551Z,0.20
2022-11-10T03:58:32.522Z,0.20
2022-11-10T03:59:32.626Z,0.20
2022-11-10T04:00:32.510Z,0.20
2022-11-10T04:01:32.522Z,0.30
2022-11-10T04:02:32.474Z,0.20
2022-11-10T04:03:32.487Z,0.30
2022-11-10T04:04:32.449Z,0.20
2022-11-10T04:05:32.464Z,0.20
2022-11-10T04:06:32.578Z,0.20
2022-11-10T04:07:32.430Z,0.30
2022-11-10T04:08:32.471Z,0.20
2022-11-10T04:09:32.430Z,0.20
2022-11-10T04:10:32.408Z,0.20
2022-11-10T04:11:32.382Z,0.20
2022-11-10T04:12:32.397Z,0.10
2022-11-10T04:13:32.368Z,0.20
2022-11-10T04:14:32.356Z,0.20
2022-11-10T04:15:32.334Z,0.20
2022-11-10T04:16:32.349Z,0.20
2022-11-10T04:17:32.356Z,0.40
2022-11-10T04:18:32.330Z,0.20
2022-11-10T04:19:32.302Z,0.30
2022-11-10T04:20:32.278Z,0.10
2022-11-10T04:21:32.291Z,0.20
2022-11-10T04:22:32.283Z,0.20
2022-11-10T04:23:32.275Z,0.20
2022-11-10T04:24:32.237Z,0.10
2022-11-10T04:25:32.272Z,0.10
2022-11-10T04:26:32.225Z,0.20
2022-11-10T04:27:32.205Z,0.20
2022-11-10T04:28:32.207Z,0.20
2022-11-10T04:29:32.167Z,0.20
2022-11-10T04:30:32.176Z,0.20
2022-11-10T04:31:32.170Z,0.20
2022-11-10T04:32:32.170Z,0.20
2022-11-10T04:33:32.165Z,0.30
2022-11-10T04:34:32.154Z,0.20
2022-11-10T04:35:32.101Z,0.20
2022-11-10T04:36:32.097Z,0.20
2022-11-10T04:37:32.128Z,0.20
2022-11-10T04:38:32.095Z,0.20
2022-11-10T04:39:32.080Z,0.20
2022-11-10T04:40:32.091Z,0.20
2022-11-10T04:41:32.053Z,0.20
2022-11-10T04:42:32.061Z,0.10
2022-11-10T04:43:32.097Z,0.20
2022-11-10T04:44:32.066Z,0.20
2022-11-10T04:45:32.034Z,0.20
2022-11-10T04:46:32.049Z,0.20
2022-11-10T04:47:31.974Z,0.20
2022-11-10T04:48:32.031Z,0.20
2022-11-10T04:49:32.009Z,0.20
2022-11-10T04:50:31.943Z,0.20
2022-11-10T04:51:32.023Z,0.20
2022-11-10T04:52:31.927Z,0.20
2022-11-10T04:53:31.957Z,0.20
2022-11-10T04:54:31.927Z,0.20
2022-11-10T04:55:31.927Z,0.20
2022-11-10T04:56:31.891Z,0.30
2022-11-10T04:57:31.924Z,0.20
2022-11-10T04:58:31.891Z,0.30
2022-11-10T04:59:31.891Z,0.20
2022-11-10T05:00:31.995Z,0.30
2022-11-10T05:01:31.967Z,0.20
2022-11-10T05:02:36.881Z,0.20
2022-11-10T05:03:32.835Z,0.20
2022-11-10T05:04:31.803Z,0.20
2022-11-10T05:05:31.812Z,0.30
2022-11-10T05:06:31.819Z,0.30
2022-11-10T05:07:31.821Z,0.20
2022-11-10T05:08:31.776Z,0.20
2022-11-10T05:09:31.763Z,0.10
2022-11-10T05:10:31.771Z,0.30
2022-11-10T05:11:31.801Z,0.20
2022-11-10T05:12:31.750Z,0.30
2022-11-10T05:13:31.731Z,0.20
2022-11-10T05:14:31.697Z,0.20
2022-11-10T05:15:31.695Z,0.20
2022-11-10T05:16:31.731Z,0.30
2022-11-10T05:17:31.653Z,0.20
2022-11-10T05:18:31.691Z,0.30
2022-11-10T05:19:31.696Z,0.20
2022-11-10T05:20:31.660Z,0.20
2022-11-10T05:21:31.624Z,0.30
2022-11-10T05:22:31.644Z,0.20
2022-11-10T05:23:31.615Z,0.20
2022-11-10T05:24:31.575Z,0.20
2022-11-10T05:25:31.589Z,0.20
2022-11-10T05:26:31.586Z,0.20
2022-11-10T05:27:31.546Z,0.20
2022-11-10T05:28:31.580Z,0.20
2022-11-10T05:29:31.557Z,0.20
2022-11-10T05:30:31.587Z,0.20
2022-11-10T05:31:31.512Z,0.20
2022-11-10T05:32:31.556Z,0.20
2022-11-10T05:33:31.531Z,0.20
2022-11-10T05:34:31.498Z,0.20
2022-11-10T05:35:31.497Z,0.20
2022-11-10T05:36:31.490Z,0.20
2022-11-10T05:37:31.489Z,0.10
2022-11-10T05:38:31.428Z,1.80
2022-11-10T05:39:31.483Z,0.20
2022-11-10T05:40:31.453Z,0.20
2022-11-10T05:41:31.408Z,0.10
2022-11-10T05:42:31.387Z,0.30
2022-11-10T05:43:31.417Z,0.20
2022-11-10T05:44:31.390Z,0.20
2022-11-10T05:45:31.376Z,0.20
2022-11-10T05:46:31.373Z,0.20
2022-11-10T05:47:31.379Z,0.10
2022-11-10T05:48:31.357Z,0.20
2022-11-10T05:49:31.338Z,0.20
2022-11-10T05:50:31.324Z,0.20
2022-11-10T05:51:31.299Z,0.20
2022-11-10T05:52:31.278Z,0.20
2022-11-10T05:53:31.340Z,0.20
2022-11-10T05:54:31.270Z,0.20
2022-11-10T05:55:31.303Z,0.20
2022-11-10T05:56:31.254Z,0.20
2022-11-10T05:57:31.264Z,0.20
2022-11-10T05:58:31.254Z,0.40
2022-11-10T05:59:31.247Z,0.20
2022-11-10T06:00:31.187Z,0.30
2022-11-10T06:01:31.181Z,0.50
2022-11-10T06:02:31.191Z,0.20
2022-11-10T06:03:31.192Z,0.20
2022-11-10T06:04:31.172Z,0.40
2022-11-10T06:05:31.653Z,0.20
2022-11-10T06:06:31.163Z,0.30
2022-11-10T06:07:31.142Z,0.20
2022-11-10T06:08:31.137Z,0.20
2022-11-10T06:09:31.129Z,0.20
2022-11-10T06:10:31.137Z,0.20
2022-11-10T06:11:31.107Z,0.30
2022-11-10T06:12:31.061Z,1.40
2022-11-10T06:13:31.100Z,0.20
2022-11-10T06:14:31.058Z,0.20
2022-11-10T06:15:31.020Z,0.20
2022-11-10T06:16:31.062Z,0.20
2022-11-10T06:17:31.038Z,0.50
2022-11-10T06:18:31.084Z,0.20
2022-11-10T06:19:31.012Z,0.20
2022-11-10T06:20:31.005Z,0.20
2022-11-10T06:21:31.016Z,0.20
2022-11-10T06:22:30.980Z,0.20
2022-11-10T06:23:31.001Z,0.20
2022-11-10T06:24:30.962Z,0.20
2022-11-10T06:25:30.946Z,0.20
2022-11-10T06:26:30.978Z,0.20
2022-11-10T06:27:30.907Z,0.10
2022-11-10T06:28:30.925Z,0.20
2022-11-10T06:29:30.884Z,0.20
2022-11-10T06:30:30.877Z,0.30
2022-11-10T06:31:30.903Z,0.20
2022-11-10T06:32:30.853Z,0.20
2022-11-10T06:33:30.902Z,0.20
2022-11-10T06:34:30.822Z,0.20
2022-11-10T06:35:30.859Z,0.20
2022-11-10T06:36:30.824Z,0.20
2022-11-10T06:37:30.922Z,0.20
2022-11-10T06:38:30.830Z,0.20
2022-11-10T06:39:30.790Z,0.30
2022-11-10T06:40:30.778Z,0.20
2022-11-10T06:41:30.783Z,0.20
2022-11-10T06:42:30.769Z,0.20
2022-11-10T06:43:30.773Z,0.20
2022-11-10T06:44:30.747Z,0.20
2022-11-10T06:45:30.712Z,0.30
2022-11-10T06:46:30.726Z,0.20
2022-11-10T06:47:30.686Z,0.30
2022-11-10T06:48:30.704Z,0.20
2022-11-10T06:49:30.717Z,0.20
2022-11-10T06:50:30.645Z,0.20
2022-11-10T06:51:30.666Z,0.10
2022-11-10T06:52:30.629Z,0.20
2022-11-10T06:53:30.771Z,0.20
2022-11-10T06:54:30.660Z,0.20
2022-11-10T06:55:30.715Z,0.20
2022-11-10T06:56:30.632Z,0.20
2022-11-10T06:57:30.584Z,0.20
2022-11-10T06:58:30.669Z,0.30
2022-11-10T06:59:30.550Z,0.20
2022-11-10T07:00:30.626Z,0.30
2022-11-10T07:01:30.723Z,0.20
2022-11-10T07:02:30.512Z,0.30
2022-11-10T07:03:30.544Z,0.20
2022-11-10T07:04:30.518Z,0.20
2022-11-10T07:05:30.495Z,0.20
2022-11-10T07:06:30.527Z,0.20
2022-11-10T07:07:30.474Z,0.20
2022-11-10T07:08:30.540Z,0.20
2022-11-10T07:09:30.462Z,0.20
2022-11-10T07:10:30.449Z,0.20
2022-11-10T07:11:30.459Z,0.20
2022-11-10T07:12:30.413Z,0.20
2022-11-10T07:13:30.445Z,0.30
2022-11-10T07:14:30.428Z,0.20
2022-11-10T07:15:30.389Z,0.30
2022-11-10T07:16:30.389Z,0.20
2022-11-10T07:17:30.363Z,0.20
2022-11-10T07:18:30.360Z,0.20
2022-11-10T07:19:30.387Z,0.20
2022-11-10T07:20:30.365Z,0.20
2022-11-10T07:21:30.314Z,0.20
2022-11-10T07:22:30.342Z,0.20
2022-11-10T07:23:30.312Z,0.20
2022-11-10T07:24:30.375Z,0.20
2022-11-10T07:25:30.259Z,0.20
2022-11-10T07:26:30.274Z,0.20
2022-11-10T07:27:30.248Z,0.20
2022-11-10T07:28:30.274Z,0.10
2022-11-10T07:29:30.238Z,0.20
2022-11-10T07:30:30.231Z,0.20
2022-11-10T07:31:30.205Z,0.30
2022-11-10T07:32:30.231Z,0.20
2022-11-10T07:33:30.242Z,0.30
2022-11-10T07:34:30.282Z,0.20
2022-11-10T07:35:30.163Z,0.20
2022-11-10T07:36:30.148Z,0.20
2022-11-10T07:37:30.220Z,0.30
2022-11-10T07:38:30.167Z,0.20
2022-11-10T07:39:30.148Z,0.30
2022-11-10T07:40:30.108Z,0.20
2022-11-10T07:41:30.158Z,0.20
2022-11-10T07:42:30.153Z,0.20
2022-11-10T07:43:33.199Z,0.30
2022-11-10T07:44:30.055Z,0.20
2022-11-10T07:45:30.039Z,0.30
2022-11-10T07:46:30.049Z,0.20
2022-11-10T07:47:30.023Z,0.20
2022-11-10T07:48:30.359Z,0.20
2022-11-10T07:49:30.096Z,0.20
2022-11-10T07:50:30.014Z,0.20
2022-11-10T07:51:30.032Z,0.30
2022-11-10T07:52:30.054Z,0.20
2022-11-10T07:53:29.980Z,0.20
2022-11-10T07:54:29.967Z,0.20
2022-11-10T07:55:29.944Z,0.20
2022-11-10T07:56:29.953Z,0.20
2022-11-10T07:57:29.924Z,0.30
2022-11-10T07:58:29.950Z,0.50
2022-11-10T07:59:29.970Z,0.20
2022-11-10T08:00:29.884Z,0.10
2022-11-10T08:01:30.654Z,0.20
2022-11-10T08:02:29.861Z,0.20
2022-11-10T08:03:29.875Z,0.20
2022-11-10T08:04:29.870Z,0.30
2022-11-10T08:05:29.853Z,0.20
2022-11-10T08:06:34.919Z,0.30
2022-11-10T08:07:31.066Z,0.40
2022-11-10T08:08:29.855Z,0.20
2022-11-10T08:09:29.825Z,0.20
2022-11-10T08:10:29.990Z,0.20
2022-11-10T08:11:29.766Z,0.20
2022-11-10T08:12:32.680Z,0.30
2022-11-10T08:13:29.738Z,0.20
2022-11-10T08:14:29.791Z,0.20
2022-11-10T08:15:29.716Z,0.20
2022-11-10T08:16:29.770Z,0.20
2022-11-10T08:17:29.764Z,0.20
2022-11-10T08:18:35.114Z,0.30
2022-11-10T08:19:30.765Z,0.20
2022-11-10T08:20:29.703Z,0.20
2022-11-10T08:21:29.683Z,0.30
2022-11-10T08:22:29.671Z,0.20
2022-11-10T08:23:29.774Z,0.20
2022-11-10T08:24:29.642Z,0.30
2022-11-10T08:25:34.475Z,0.20
2022-11-10T08:26:30.624Z,1.00
2022-11-10T08:27:30.746Z,0.20
2022-11-10T08:28:29.643Z,0.20
2022-11-10T08:29:29.575Z,0.20
2022-11-10T08:30:29.679Z,0.30
2022-11-10T08:31:29.544Z,0.20
2022-11-10T08:32:29.541Z,0.20
2022-11-10T08:33:29.572Z,0.40
2022-11-10T08:34:29.568Z,0.70
2022-11-10T08:35:29.542Z,3.40
2022-11-10T08:36:29.659Z,4.60
2022-11-10T08:37:29.503Z,2.90
2022-11-10T08:38:29.488Z,3.30
2022-11-10T08:39:39.158Z,5.70
2022-11-10T08:40:30.537Z,5.10
2022-11-10T08:41:29.513Z,4.50
2022-11-10T08:42:29.422Z,2.80
2022-11-10T08:43:29.415Z,4.40
2022-11-10T08:44:29.447Z,4.50
2022-11-10T08:45:30.798Z,3.90
2022-11-10T08:46:29.444Z,3.30
2022-11-10T08:47:29.370Z,6.20
2022-11-10T08:48:29.431Z,4.80
2022-11-10T08:49:29.373Z,7.20
2022-11-10T08:50:29.456Z,4.60
2022-11-10T08:51:29.381Z,6.60
2022-11-10T08:52:29.382Z,4.40
2022-11-10T08:53:29.344Z,2.10
2022-11-10T08:54:30.595Z,3.10
2022-11-10T08:55:29.330Z,4.10
2022-11-10T08:56:29.280Z,3.20
2022-11-10T08:57:29.275Z,4.10
2022-11-10T08:58:29.294Z,3.30
2022-11-10T08:59:29.299Z,1.30
2022-11-10T09:00:29.251Z,2.60
2022-11-10T09:01:29.217Z,1.90
2022-11-10T09:02:29.202Z,2.60
2022-11-10T09:03:29.416Z,1.70
2022-11-10T09:04:29.190Z,3.10
2022-11-10T09:05:29.193Z,2.60
2022-11-10T09:06:29.178Z,3.20
2022-11-10T09:07:29.263Z,1.90
2022-11-10T09:08:29.195Z,2.40
2022-11-10T09:09:29.196Z,5.80
2022-11-10T09:10:29.115Z,3.60
2022-11-10T09:11:29.173Z,1.80
2022-11-10T09:12:29.425Z,2.30
2022-11-10T09:13:30.972Z,4.40
2022-11-10T09:14:29.102Z,2.30
2022-11-10T09:15:29.096Z,1.80
2022-11-10T09:16:29.106Z,5.40
2022-11-10T09:17:29.071Z,4.90
2022-11-10T09:18:29.079Z,1.50
2022-11-10T09:19:29.060Z,2.60
2022-11-10T09:20:29.005Z,2.50
2022-11-10T09:21:29.070Z,4.00
2022-11-10T09:22:28.980Z,3.90
2022-11-10T09:23:29.026Z,3.80
2022-11-10T09:24:31.457Z,2.20
2022-11-10T09:25:29.013Z,2.40
2022-11-10T09:26:29.622Z,3.80
2022-11-10T09:27:28.978Z,1.80
2022-11-10T09:28:28.935Z,5.40
2022-11-10T09:29:28.914Z,2.40
2022-11-10T09:30:29.077Z,2.50
2022-11-10T09:31:28.911Z,4.00
2022-11-10T09:32:28.872Z,3.90
2022-11-10T09:33:28.894Z,4.00
2022-11-10T09:34:28.885Z,3.10
2022-11-10T09:35:28.875Z,3.50
2022-11-10T09:36:28.897Z,2.10
2022-11-10T09:37:28.899Z,4.00
2022-11-10T09:38:29.085Z,2.40
2022-11-10T09:39:28.961Z,3.60
2022-11-10T09:40:28.787Z,4.10
2022-11-10T09:41:28.826Z,1.80
2022-11-10T09:42:28.775Z,2.70
2022-11-10T09:43:28.772Z,2.90
2022-11-10T09:44:28.735Z,1.90
2022-11-10T09:45:28.824Z,1.90
2022-11-10T09:46:28.761Z,3.40
2022-11-10T09:47:55.868Z,4.60
2022-11-10T09:48:29.755Z,2.10
2022-11-10T09:49:28.720Z,3.40
2022-11-10T09:50:28.699Z,2.20
2022-11-10T09:51:28.690Z,2.70
2022-11-10T09:52:28.676Z,3.40
2022-11-10T09:53:28.707Z,2.80
2022-11-10T09:54:28.625Z,2.90
2022-11-10T09:55:28.643Z,2.80
2022-11-10T09:56:29.006Z,4.30
2022-11-10T09:57:28.637Z,3.30
2022-11-10T09:58:28.634Z,2.80
2022-11-10T09:59:28.629Z,2.40
2022-11-10T10:00:28.563Z,2.40
2022-11-10T10:01:28.680Z,2.20
2022-11-10T10:02:28.605Z,2.40
2022-11-10T10:03:28.575Z,3.60
2022-11-10T10:04:28.516Z,3.60
2022-11-10T10:05:31.415Z,2.60
2022-11-10T10:06:43.781Z,4.50
2022-11-10T10:07:29.583Z,3.80
2022-11-10T10:08:28.487Z,2.60
2022-11-10T10:09:28.486Z,1.70
2022-11-10T10:10:28.541Z,2.70
2022-11-10T10:11:28.505Z,3.00
2022-11-10T10:12:28.719Z,2.90
2022-11-10T10:13:28.501Z,4.40
2022-11-10T10:14:32.133Z,2.30
2022-11-10T10:15:28.483Z,2.10
2022-11-10T10:16:28.387Z,1.80
2022-11-10T10:17:28.409Z,4.00
2022-11-10T10:18:28.387Z,2.00
2022-11-10T10:19:28.370Z,3.90
2022-11-10T10:20:28.381Z,3.60
2022-11-10T10:21:28.334Z,2.10
2022-11-10T10:22:28.371Z,2.50
2022-11-10T10:23:54.455Z,4.90
2022-11-10T10:24:29.431Z,1.40
2022-11-10T10:25:28.312Z,2.60
2022-11-10T10:26:28.309Z,3.00
2022-11-10T10:27:28.287Z,4.80
2022-11-10T10:28:28.259Z,2.30
2022-11-10T10:29:30.881Z,2.10
2022-11-10T10:30:29.232Z,3.30
2022-11-10T10:31:28.287Z,2.20
2022-11-10T10:32:28.387Z,3.00
2022-11-10T10:33:28.222Z,2.80
2022-11-10T10:34:28.305Z,4.00
2022-11-10T10:35:28.180Z,2.10
2022-11-10T10:36:28.191Z,3.60
2022-11-10T10:37:28.190Z,2.20
2022-11-10T10:38:28.148Z,2.90
2022-11-10T10:39:28.166Z,4.40
2022-11-10T10:40:28.169Z,3.20
2022-11-10T10:41:28.262Z,4.90
2022-11-10T10:42:28.125Z,3.40
2022-11-10T10:43:28.096Z,2.10
2022-11-10T10:44:28.075Z,2.10
2022-11-10T10:45:28.155Z,3.40
2022-11-10T10:46:31.466Z,2.50
2022-11-10T10:47:29.110Z,7.90
2022-11-10T10:48:28.048Z,2.10
2022-11-10T10:49:29.737Z,3.00
2022-11-10T10:50:28.490Z,1.40
2022-11-10T10:51:28.020Z,1.50
2022-11-10T10:52:28.015Z,1.60
2022-11-10T10:53:27.979Z,3.10
2022-11-10T10:54:27.986Z,2.50
2022-11-10T10:55:27.993Z,4.00
2022-11-10T10:56:27.965Z,2.50
2022-11-10T10:57:28.076Z,3.10
2022-11-10T10:58:28.672Z,3.00
2022-11-10T10:59:28.089Z,3.20
2022-11-10T11:00:27.972Z,4.80
2022-11-10T11:01:27.987Z,2.60
2022-11-10T11:02:27.926Z,2.30
2022-11-10T11:03:27.878Z,3.30
2022-11-10T11:04:27.867Z,3.40
2022-11-10T11:05:27.863Z,3.60
2022-11-10T11:06:27.882Z,2.60
2022-11-10T11:07:28.713Z,3.10
2022-11-10T11:08:27.874Z,1.80
2022-11-10T11:09:27.810Z,3.00
2022-11-10T11:10:27.828Z,1.80
2022-11-10T11:11:27.819Z,2.20
2022-11-10T11:12:27.795Z,2.00
2022-11-10T11:13:27.821Z,3.10
2022-11-10T11:14:27.754Z,2.30
2022-11-10T11:15:27.811Z,1.80
2022-11-10T11:16:29.073Z,4.90
2022-11-10T11:17:27.878Z,3.60
2022-11-10T11:18:27.725Z,2.30
2022-11-10T11:19:27.741Z,1.90
2022-11-10T11:20:27.691Z,4.10
2022-11-10T11:21:27.678Z,2.60
2022-11-10T11:22:27.714Z,1.60
2022-11-10T11:23:27.657Z,5.10
2022-11-10T11:24:27.656Z,2.80
2022-11-10T11:25:27.827Z,1.20
2022-11-10T11:26:27.642Z,3.90
2022-11-10T11:27:27.647Z,3.00
2022-11-10T11:28:27.603Z,3.50
2022-11-10T11:29:27.590Z,4.10
2022-11-10T11:30:27.579Z,2.80
2022-11-10T11:31:27.576Z,4.30
2022-11-10T11:32:27.613Z,4.50
2022-11-10T11:33:27.571Z,2.60
2022-11-10T11:34:28.124Z,3.10
2022-11-10T11:35:27.547Z,3.50
2022-11-10T11:36:27.518Z,2.60
2022-11-10T11:37:27.525Z,2.70
2022-11-10T11:38:27.523Z,1.90
2022-11-10T11:39:27.502Z,2.20
2022-11-10T11:40:27.474Z,2.60
2022-11-10T11:41:27.496Z,1.70
2022-11-10T11:42:27.539Z,2.60
2022-11-10T11:43:28.234Z,1.90
2022-11-10T11:44:27.422Z,3.10
2022-11-10T11:45:27.464Z,2.00
2022-11-10T11:46:27.427Z,2.80
2022-11-10T11:47:27.392Z,3.30
2022-11-10T11:48:27.404Z,3.60
2022-11-10T11:49:27.421Z,3.70
2022-11-10T11:50:27.431Z,3.30
2022-11-10T11:51:27.384Z,3.20
2022-11-10T11:52:27.452Z,3.30
2022-11-10T11:53:27.345Z,3.00
2022-11-10T11:54:27.324Z,3.10
2022-11-10T11:55:27.317Z,2.80
2022-11-10T11:56:27.371Z,5.20
2022-11-10T11:57:27.357Z,3.60
2022-11-10T11:58:27.303Z,4.00
2022-11-10T11:59:27.276Z,3.70
2022-11-10T12:00:27.248Z,3.00
2022-11-10T12:01:27.273Z,3.80
2022-11-10T12:02:27.317Z,4.90
2022-11-10T12:03:27.262Z,3.50
2022-11-10T12:04:27.226Z,3.50
2022-11-10T12:05:27.229Z,2.70
2022-11-10T12:06:27.221Z,6.00
2022-11-10T12:07:27.328Z,9.70
2022-11-10T12:08:27.573Z,3.50
2022-11-10T12:09:27.182Z,2.70
2022-11-10T12:10:28.894Z,3.90
2022-11-10T12:11:27.147Z,4.30
2022-11-10T12:12:27.151Z,4.00
2022-11-10T12:13:27.115Z,3.70
2022-11-10T12:14:27.121Z,2.90
2022-11-10T12:15:27.090Z,3.80
2022-11-10T12:16:27.076Z,1.60
2022-11-10T12:17:27.098Z,3.30
2022-11-10T12:18:27.075Z,4.20
2022-11-10T12:19:27.116Z,2.40
2022-11-10T12:20:27.050Z,2.20
2022-11-10T12:21:27.045Z,1.70
2022-11-10T12:22:27.010Z,2.30
2022-11-10T12:23:27.006Z,3.70
2022-11-10T12:24:27.019Z,2.80
2022-11-10T12:25:26.997Z,2.60
2022-11-10T12:26:27.010Z,9.00
2022-11-10T12:27:27.024Z,5.50
2022-11-10T12:28:27.022Z,16.10
2022-11-10T12:29:26.992Z,4.40
2022-11-10T12:30:26.963Z,2.50
2022-11-10T12:31:26.907Z,3.40
2022-11-10T12:32:26.942Z,2.90
2022-11-10T12:33:26.914Z,7.20
2022-11-10T12:34:26.901Z,4.90
2022-11-10T12:35:26.872Z,3.30
2022-11-10T12:36:26.919Z,3.10
2022-11-10T12:37:28.105Z,4.00
2022-11-10T12:38:26.834Z,4.00
2022-11-10T12:39:26.821Z,2.70
2022-11-10T12:40:26.816Z,5.00
2022-11-10T12:41:26.886Z,4.20
2022-11-10T12:42:26.795Z,3.10
2022-11-10T12:43:26.778Z,3.80
2022-11-10T12:44:26.912Z,2.40
2022-11-10T12:45:26.768Z,4.30
2022-11-10T12:46:26.790Z,2.10
2022-11-10T12:47:26.804Z,4.40
2022-11-10T12:48:26.724Z,3.90
2022-11-10T12:49:26.716Z,2.30
2022-11-10T12:50:26.756Z,2.80
2022-11-10T12:51:26.704Z,3.30
2022-11-10T12:52:26.749Z,2.60
2022-11-10T12:53:26.700Z,5.60
2022-11-10T12:54:26.944Z,3.40
2022-11-10T12:55:26.721Z,3.60
2022-11-10T12:56:26.687Z,2.90
2022-11-10T12:57:26.649Z,3.00
2022-11-10T12:58:26.626Z,4.00
2022-11-10T12:59:26.600Z,6.50
2022-11-10T13:00:27.704Z,5.60
2022-11-10T13:01:26.709Z,2.20
2022-11-10T13:02:26.621Z,2.80
2022-11-10T13:03:41.194Z,2.50
2022-11-10T13:04:26.657Z,4.30
2022-11-10T13:05:26.582Z,3.90
2022-11-10T13:06:26.578Z,3.20
2022-11-10T13:07:26.652Z,5.50
2022-11-10T13:08:26.538Z,4.90
2022-11-10T13:09:26.508Z,2.80
2022-11-10T13:10:26.736Z,2.60
2022-11-10T13:11:26.479Z,2.70
2022-11-10T13:12:26.797Z,2.20
2022-11-10T13:13:26.495Z,2.40
2022-11-10T13:14:26.463Z,6.20
2022-11-10T13:15:27.148Z,4.40
2022-11-10T13:16:26.458Z,2.50
2022-11-10T13:17:26.422Z,2.90
2022-11-10T13:18:26.400Z,4.20